createdAt,value
2023-04-27T00:04:00.260Z,10.01
2023-04-27T00:09:02.230Z,9.87
2023-04-27T00:14:03.925Z,9.83
2023-04-27T00:19:05.524Z,9.92
2023-04-27T00:24:07.531Z,9.58
2023-04-27T00:29:09.138Z,9.66
2023-04-27T00:34:10.981Z,9.57
2023-04-27T00:39:12.830Z,9.64
2023-04-27T00:44:23.066Z,9.67
2023-04-27T00:49:26.908Z,9.61
2023-04-27T00:54:29.015Z,9.50
2023-04-27T00:59:30.952Z,9.50
2023-04-27T01:04:33.212Z,9.37
2023-04-27T01:09:34.907Z,9.45
2023-04-27T01:14:36.838Z,9.50
2023-04-27T01:19:40.324Z,9.35
2023-04-27T01:24:41.973Z,9.44
2023-04-27T01:29:44.631Z,9.80
2023-04-27T01:34:46.244Z,9.63
2023-04-27T01:39:47.809Z,9.67
2023-04-27T01:44:49.405Z,9.54
2023-04-27T01:49:51.318Z,9.52
2023-04-27T01:54:52.918Z,9.54
2023-04-27T01:59:54.492Z,9.61
2023-04-27T02:04:56.217Z,9.57
2023-04-27T02:09:57.850Z,9.50
2023-04-27T02:14:59.427Z,9.39
2023-04-27T02:20:01.298Z,9.40
2023-04-27T02:25:03.510Z,9.34
2023-04-27T02:30:07.636Z,9.41
2023-04-27T02:35:10.171Z,9.42
2023-04-27T02:40:12.060Z,9.08
2023-04-27T02:45:13.817Z,9.47
2023-04-27T02:50:15.394Z,9.45
2023-04-27T02:55:17.258Z,9.57
2023-04-27T03:00:19.927Z,9.44
2023-04-27T03:05:21.647Z,9.44
2023-04-27T03:10:23.212Z,9.44
2023-04-27T03:15:24.785Z,9.37
2023-04-27T03:20:26.803Z,9.15
2023-04-27T03:25:28.434Z,8.91
2023-04-27T03:30:30.138Z,9.32
2023-04-27T03:35:31.726Z,9.15
2023-04-27T03:40:33.306Z,9.22
2023-04-27T03:45:34.880Z,9.24
2023-04-27T03:50:36.563Z,9.31
2023-04-27T03:55:42.458Z,9.34
2023-04-27T04:00:44.235Z,9.31
2023-04-27T04:05:47.350Z,9.59
2023-04-27T04:10:48.953Z,9.29
2023-04-27T04:15:50.603Z,9.24
2023-04-27T04:20:52.202Z,9.42
2023-04-27T04:25:56.832Z,9.44
2023-04-27T04:30:59.788Z,9.57
2023-04-27T04:36:05.318Z,9.24
2023-04-27T04:41:07.362Z,9.28
2023-04-27T04:46:09.043Z,9.23
2023-04-27T04:51:10.761Z,9.34
2023-04-27T04:56:13.747Z,9.30
2023-04-27T05:01:15.507Z,9.54
2023-04-27T05:06:17.108Z,9.55
2023-04-27T05:11:18.767Z,9.18
2023-04-27T05:16:20.482Z,9.36
2023-04-27T05:21:22.307Z,9.70
2023-04-27T05:26:23.915Z,9.70
2023-04-27T05:31:25.549Z,9.41
2023-04-27T05:36:28.661Z,9.67
2023-04-27T05:41:30.895Z,9.72
2023-04-27T05:46:33.379Z,9.71
2023-04-27T05:51:35.050Z,9.69
2023-04-27T05:56:37.934Z,9.86
2023-04-27T06:01:39.619Z,9.79
2023-04-27T06:06:41.213Z,9.91
2023-04-27T06:11:44.046Z,9.86
2023-04-27T06:16:45.648Z,9.57
2023-04-27T06:21:47.302Z,9.93
2023-04-27T06:26:52.017Z,9.75
2023-04-27T06:31:53.629Z,9.85
2023-04-27T06:36:55.277Z,9.79
2023-04-27T06:41:56.944Z,10.05
2023-04-27T06:46:58.527Z,9.96
2023-04-27T06:52:02.912Z,10.05
2023-04-27T06:57:04.699Z,9.95
2023-04-27T07:02:07.736Z,10.10
2023-04-27T07:07:09.366Z,10.20
2023-04-27T07:12:11.367Z,9.99
2023-04-27T07:17:13.148Z,10.04
2023-04-27T07:22:16.160Z,10.20
2023-04-27T07:27:17.879Z,10.26
2023-04-27T07:32:19.656Z,10.21
2023-04-27T07:37:22.402Z,10.10
2023-04-27T07:42:25.214Z,10.29
2023-04-27T07:47:27.273Z,10.38
2023-04-27T07:52:28.836Z,10.50
2023-04-27T07:57:30.680Z,10.59
2023-04-27T08:02:35.012Z,10.59
2023-04-27T08:07:42.558Z,10.79
2023-04-27T08:12:46.320Z,10.90
2023-04-27T08:17:48.395Z,10.97
2023-04-27T08:22:51.276Z,10.95
2023-04-27T08:27:52.874Z,10.93
2023-04-27T08:32:54.923Z,10.95
2023-04-27T08:37:56.904Z,10.89
2023-04-27T08:43:01.174Z,11.37
2023-04-27T08:48:02.936Z,11.34
2023-04-27T08:53:04.583Z,11.63
2023-04-27T08:58:06.314Z,11.57
2023-04-27T09:03:28.783Z,11.56
2023-04-27T09:08:48.212Z,11.67
2023-04-27T09:13:49.813Z,11.94
2023-04-27T09:18:51.730Z,11.74
2023-04-27T09:23:54.518Z,11.90
2023-04-27T09:28:59.571Z,12.13
2023-04-27T09:34:01.979Z,12.47
2023-04-27T09:39:07.061Z,12.04
2023-04-27T09:44:08.791Z,11.99
2023-04-27T09:49:12.352Z,12.28
2023-04-27T09:54:16.043Z,12.48
2023-04-27T09:59:25.398Z,12.62
2023-04-27T10:04:32.900Z,12.77
2023-04-27T10:09:49.344Z,13.06
2023-04-27T10:14:56.713Z,13.19
2023-04-27T10:20:09.827Z,13.07
2023-04-27T10:25:23.394Z,13.39
2023-04-27T10:30:27.527Z,13.38
2023-04-27T10:35:37.667Z,13.32
2023-04-27T10:40:39.493Z,13.60
2023-04-27T10:45:41.965Z,13.92
2023-04-27T10:50:47.710Z,13.82
2023-04-27T10:55:55.657Z,13.64
2023-04-27T11:00:57.243Z,14.28
2023-04-27T11:06:04.723Z,13.94
2023-04-27T11:11:06.821Z,14.38
2023-04-27T11:16:08.495Z,14.11
2023-04-27T11:21:12.798Z,14.72
2023-04-27T11:26:20.285Z,14.67
2023-04-27T11:31:22.180Z,14.52
2023-04-27T11:36:24.621Z,14.82
2023-04-27T11:41:36.820Z,15.06
2023-04-27T11:46:39.188Z,15.05
2023-04-27T11:51:40.905Z,14.73
2023-04-27T11:56:43.048Z,15.11
2023-04-27T12:01:44.868Z,15.82
2023-04-27T12:06:46.474Z,15.44
2023-04-27T12:11:48.188Z,15.44
2023-04-27T12:16:49.902Z,15.47
2023-04-27T12:21:52.956Z,14.78
2023-04-27T12:26:54.552Z,14.67
2023-04-27T12:31:56.488Z,14.37
2023-04-27T12:36:58.141Z,14.50
2023-04-27T12:41:59.800Z,14.19
2023-04-27T12:47:01.434Z,14.21
2023-04-27T12:52:03.109Z,14.20
2023-04-27T12:57:06.659Z,14.22
2023-04-27T13:02:09.849Z,14.33
2023-04-27T13:07:12.150Z,14.48
2023-04-27T13:12:14.197Z,14.91
2023-04-27T13:17:15.836Z,14.47
2023-04-27T13:22:17.457Z,14.22
2023-04-27T13:27:20.412Z,14.38
2023-04-27T13:32:22.753Z,14.17
2023-04-27T13:37:24.569Z,14.14
2023-04-27T13:42:29.551Z,14.17
2023-04-27T13:47:37.328Z,14.26
2023-04-27T13:52:39.784Z,14.62
2023-04-27T13:57:41.496Z,15.10
2023-04-27T14:02:43.153Z,15.67
2023-04-27T14:07:44.933Z,15.87
2023-04-27T14:12:46.673Z,15.45
2023-04-27T14:17:48.320Z,15.93
2023-04-27T14:22:50.169Z,16.08
2023-04-27T14:27:51.830Z,16.38
2023-04-27T14:32:54.029Z,16.74
2023-04-27T14:37:57.265Z,16.16
2023-04-27T14:42:59.503Z,16.14
2023-04-27T14:48:01.641Z,15.74
2023-04-27T14:53:03.275Z,15.41
2023-04-27T14:58:04.959Z,15.26
2023-04-27T15:03:06.865Z,15.15
2023-04-27T15:08:08.861Z,15.99
2023-04-27T15:13:10.586Z,15.99
2023-04-27T15:18:12.533Z,15.94
2023-04-27T15:23:14.358Z,15.66
2023-04-27T15:28:16.886Z,15.45
2023-04-27T15:33:19.057Z,15.51
2023-04-27T15:38:21.107Z,15.80
2023-04-27T15:43:22.787Z,16.10
2023-04-27T15:48:25.433Z,15.95
2023-04-27T15:53:27.135Z,16.15
2023-04-27T15:58:28.749Z,15.88
2023-04-27T16:03:30.712Z,16.11
2023-04-27T16:08:32.639Z,16.24
2023-04-27T16:13:34.258Z,15.80
2023-04-27T16:18:36.090Z,15.72
2023-04-27T16:23:37.783Z,15.52
2023-04-27T16:28:39.394Z,15.46
2023-04-27T16:33:41.325Z,15.42
2023-04-27T16:38:42.950Z,15.46
2023-04-27T16:43:44.554Z,15.52
2023-04-27T16:48:46.486Z,15.47
2023-04-27T16:53:48.226Z,15.24
2023-04-27T16:58:49.824Z,15.14
2023-04-27T17:03:51.634Z,15.12
2023-04-27T17:08:53.822Z,15.00
2023-04-27T17:13:55.584Z,14.92
2023-04-27T17:18:57.322Z,14.80
2023-04-27T17:23:59.018Z,14.84
2023-04-27T17:29:01.798Z,14.65
2023-04-27T17:34:03.627Z,14.57
2023-04-27T17:39:05.334Z,14.57
2023-04-27T17:44:06.987Z,14.44
2023-04-27T17:49:08.597Z,14.40
2023-04-27T17:54:11.747Z,14.29
2023-04-27T17:59:13.651Z,14.27
2023-04-27T18:04:15.565Z,14.19
2023-04-27T18:09:17.680Z,14.12
2023-04-27T18:14:19.600Z,14.07
2023-04-27T18:19:21.514Z,13.92
2023-04-27T18:24:23.156Z,13.83
2023-04-27T18:29:24.768Z,13.65
2023-04-27T18:34:27.226Z,13.65
2023-04-27T18:39:29.306Z,13.63
2023-04-27T18:44:31.383Z,13.54
2023-04-27T18:49:33.474Z,13.50
2023-04-27T18:54:35.468Z,13.31
2023-04-27T18:59:40.510Z,13.39
2023-04-27T19:04:45.571Z,13.33
2023-04-27T19:09:57.313Z,13.20
2023-04-27T19:14:59.406Z,13.19
2023-04-27T19:20:01.317Z,13.10
2023-04-27T19:25:06.876Z,13.18
2023-04-27T19:30:09.219Z,13.08
2023-04-27T19:35:12.558Z,13.07
2023-04-27T19:40:15.299Z,13.00
2023-04-27T19:45:19.133Z,12.90
2023-04-27T19:50:21.421Z,12.87
2023-04-27T19:55:23.560Z,12.94
2023-04-27T20:00:25.595Z,12.92
2023-04-27T20:05:27.810Z,12.79
2023-04-27T20:10:29.656Z,12.84
2023-04-27T20:15:31.309Z,12.77
2023-04-27T20:20:32.897Z,12.65
2023-04-27T20:25:34.491Z,12.90
2023-04-27T20:30:36.103Z,12.67
2023-04-27T20:35:37.768Z,12.83
2023-04-27T20:40:40.046Z,12.85
2023-04-27T20:45:42.464Z,12.82
2023-04-27T20:50:44.031Z,12.75
2023-04-27T20:55:46.348Z,12.60
2023-04-27T21:00:47.964Z,12.53
2023-04-27T21:05:49.643Z,12.45
2023-04-27T21:10:51.436Z,12.41
2023-04-27T21:15:53.034Z,12.57
2023-04-27T21:20:54.614Z,12.30
2023-04-27T21:25:56.322Z,12.26
2023-04-27T21:30:57.919Z,12.14
2023-04-27T21:35:59.689Z,12.16
2023-04-27T21:41:01.302Z,12.15
2023-04-27T21:46:02.884Z,12.20
2023-04-27T21:51:04.544Z,12.18
2023-04-27T21:56:06.644Z,12.20
2023-04-27T22:01:08.195Z,11.97
2023-04-27T22:06:09.945Z,11.90
2023-04-27T22:11:11.580Z,11.97
2023-04-27T22:16:13.886Z,11.89
2023-04-27T22:21:16.100Z,12.05
2023-04-27T22:26:17.689Z,11.95
2023-04-27T22:31:19.329Z,11.76
2023-04-27T22:36:21.132Z,11.58
2023-04-27T22:41:22.703Z,11.69
2023-04-27T22:46:24.457Z,11.77
2023-04-27T22:51:27.563Z,11.91
2023-04-27T22:56:29.141Z,11.65
2023-04-27T23:01:30.852Z,11.55
2023-04-27T23:06:32.519Z,11.70
2023-04-27T23:11:34.258Z,11.81
2023-04-27T23:16:35.902Z,11.52
2023-04-27T23:21:37.463Z,11.41
2023-04-27T23:26:39.058Z,11.46
2023-04-27T23:31:41.313Z,11.30
2023-04-27T23:36:43.159Z,11.26
2023-04-27T23:41:44.753Z,11.06
2023-04-27T23:46:46.326Z,11.09
2023-04-27T23:51:49.989Z,11.03
2023-04-27T23:56:51.862Z,10.99
